createdAt,value
2023-03-31T00:00:41.617Z,92004.44
2023-03-31T00:03:20.957Z,91999.34
2023-03-31T00:05:57.855Z,92009.16
2023-03-31T00:08:34.680Z,92005.22
2023-03-31T00:11:07.625Z,91997.59
2023-03-31T00:13:40.212Z,92004.06
2023-03-31T00:16:12.553Z,91995.19
2023-03-31T00:18:46.606Z,91992.19
2023-03-31T00:21:24.876Z,91991.13
2023-03-31T00:23:59.962Z,91992.66
2023-03-31T00:26:33.981Z,91989.88
2023-03-31T00:29:08.066Z,91989.59
2023-03-31T00:31:40.429Z,91996.53
2023-03-31T00:34:13.398Z,91985.44
2023-03-31T00:36:46.902Z,91975.78
2023-03-31T00:39:19.447Z,91975.22
2023-03-31T00:41:51.833Z,91978.19
2023-03-31T00:44:25.162Z,91971.34
2023-03-31T00:47:03.144Z,91965.16
2023-03-31T00:49:39.954Z,91963.19
2023-03-31T00:52:18.185Z,91956.94
2023-03-31T00:54:58.321Z,91954.72
2023-03-31T00:57:38.631Z,91960.84
2023-03-31T01:00:14.599Z,91956.72
2023-03-31T01:02:52.695Z,91956.03
2023-03-31T01:05:28.964Z,91958.38
2023-03-31T01:08:02.049Z,91952.13
2023-03-31T01:10:41.046Z,91952.94
2023-03-31T01:13:15.894Z,91952.47
2023-03-31T01:15:48.320Z,91944.00
2023-03-31T01:18:21.721Z,91949.13
2023-03-31T01:21:30.249Z,91944.25
2023-03-31T01:24:25.358Z,91948.34
2023-03-31T01:27:21.490Z,91952.66
2023-03-31T01:30:19.660Z,91955.16
2023-03-31T01:33:24.096Z,91955.34
2023-03-31T01:36:31.185Z,91962.91
2023-03-31T01:39:45.452Z,91961.50
2023-03-31T01:42:29.936Z,91964.16
2023-03-31T01:45:16.360Z,91971.19
2023-03-31T01:47:57.435Z,91968.59
2023-03-31T01:50:35.619Z,91960.47
2023-03-31T01:53:15.452Z,91967.88
2023-03-31T01:55:57.108Z,91964.09
2023-03-31T01:58:35.042Z,91978.56
2023-03-31T02:01:15.314Z,91986.16
2023-03-31T02:03:55.020Z,91985.91
2023-03-31T02:06:28.826Z,91996.19
2023-03-31T02:09:05.764Z,91995.78
2023-03-31T02:11:41.004Z,92003.59
2023-03-31T02:14:21.174Z,92008.34
2023-03-31T02:16:57.850Z,92014.78
2023-03-31T02:19:35.124Z,92021.03
2023-03-31T02:22:09.821Z,92028.94
2023-03-31T02:24:44.096Z,92024.00
2023-03-31T02:27:21.564Z,92032.59
2023-03-31T02:29:55.676Z,92034.19
2023-03-31T02:32:32.575Z,92033.06
2023-03-31T02:35:07.324Z,92031.06
2023-03-31T02:37:40.968Z,92033.84
2023-03-31T02:40:18.335Z,92032.94
2023-03-31T02:42:51.060Z,92031.81
2023-03-31T02:45:40.427Z,92021.41
2023-03-31T02:48:18.850Z,92025.56
2023-03-31T02:51:16.996Z,92009.47
2023-03-31T02:54:05.392Z,92003.88
2023-03-31T02:57:13.733Z,91998.09
2023-03-31T02:59:58.558Z,91989.66
2023-03-31T03:02:44.981Z,91986.00
2023-03-31T03:05:25.377Z,91979.47
2023-03-31T03:08:23.117Z,91970.41
2023-03-31T03:11:06.329Z,91961.56
2023-03-31T03:13:46.490Z,91959.38
2023-03-31T03:16:23.835Z,91940.88
2023-03-31T03:18:58.496Z,91934.22
2023-03-31T03:21:31.369Z,91939.81
2023-03-31T03:24:04.019Z,91950.28
2023-03-31T03:26:36.541Z,91954.16
2023-03-31T03:29:08.978Z,91954.06
2023-03-31T03:31:41.582Z,91953.38
2023-03-31T03:34:15.769Z,91950.75
2023-03-31T03:36:48.099Z,91949.81
2023-03-31T03:39:20.884Z,91939.56
2023-03-31T03:41:53.252Z,91937.31
2023-03-31T03:44:25.646Z,91930.97
2023-03-31T03:46:58.113Z,91932.13
2023-03-31T03:49:31.174Z,91929.09
2023-03-31T03:52:03.904Z,91932.59
2023-03-31T03:54:36.228Z,91929.66
2023-03-31T03:57:08.609Z,91934.50
2023-03-31T03:59:41.154Z,91938.38
2023-03-31T04:02:13.824Z,91944.69
2023-03-31T04:04:47.611Z,91948.78
2023-03-31T04:07:19.974Z,91949.84
2023-03-31T04:09:52.287Z,91950.41
2023-03-31T04:12:24.646Z,91964.44
2023-03-31T04:14:56.940Z,91959.72
2023-03-31T04:17:32.171Z,91957.53
2023-03-31T04:20:09.046Z,91959.31
2023-03-31T04:22:41.482Z,91957.25
2023-03-31T04:25:15.756Z,91957.03
2023-03-31T04:27:50.313Z,91960.38
2023-03-31T04:30:24.731Z,91967.19
2023-03-31T04:32:58.840Z,91966.94
2023-03-31T04:35:48.811Z,91958.59
2023-03-31T04:38:22.517Z,91958.31
2023-03-31T04:40:55.602Z,91955.19
2023-03-31T04:43:28.029Z,91961.84
2023-03-31T04:46:00.403Z,91963.81
2023-03-31T04:48:32.733Z,91962.06
2023-03-31T04:51:06.228Z,91970.47
2023-03-31T04:53:38.526Z,91969.47
2023-03-31T04:56:10.855Z,91959.09
2023-03-31T04:58:43.856Z,91960.28
2023-03-31T05:01:17.523Z,91932.28
2023-03-31T05:03:50.180Z,91943.66
2023-03-31T05:06:23.155Z,91939.88
2023-03-31T05:08:55.502Z,91937.19
2023-03-31T05:11:28.269Z,91934.72
2023-03-31T05:14:00.970Z,91935.72
2023-03-31T05:16:33.345Z,91931.66
2023-03-31T05:19:05.738Z,91923.91
2023-03-31T05:21:38.715Z,91929.53
2023-03-31T05:24:11.270Z,91922.91
2023-03-31T05:26:47.708Z,91924.56
2023-03-31T05:29:20.104Z,91921.81
2023-03-31T05:31:53.237Z,91912.19
2023-03-31T05:34:42.539Z,91915.53
2023-03-31T05:37:15.533Z,91914.47
2023-03-31T05:39:47.873Z,91915.38
2023-03-31T05:42:20.494Z,91921.63
2023-03-31T05:44:52.748Z,91919.44
2023-03-31T05:47:25.256Z,91925.69
2023-03-31T05:49:58.067Z,91926.06
2023-03-31T05:52:32.232Z,91922.09
2023-03-31T05:55:05.084Z,91922.47
2023-03-31T05:57:37.389Z,91933.09
2023-03-31T06:00:11.192Z,91934.16
2023-03-31T06:02:43.526Z,91938.59
2023-03-31T06:05:15.907Z,91939.94
2023-03-31T06:07:48.870Z,91940.91
2023-03-31T06:10:21.152Z,91941.38
2023-03-31T06:12:53.419Z,91943.41
2023-03-31T06:15:25.716Z,91940.13
2023-03-31T06:17:58.355Z,91937.72
2023-03-31T06:20:31.285Z,91926.44
2023-03-31T06:23:04.277Z,91929.91
2023-03-31T06:25:49.977Z,91930.59
2023-03-31T06:28:23.547Z,91933.78
2023-03-31T06:31:00.918Z,91936.38
2023-03-31T06:33:34.062Z,91934.16
2023-03-31T06:36:07.336Z,91936.69
2023-03-31T06:38:40.749Z,91936.56
2023-03-31T06:41:14.776Z,91923.66
2023-03-31T06:43:47.160Z,91939.06
2023-03-31T06:46:19.830Z,91943.03
2023-03-31T06:48:52.221Z,91939.56
2023-03-31T06:51:24.532Z,91943.00
2023-03-31T06:53:57.448Z,91936.53
2023-03-31T06:56:29.880Z,91944.44
2023-03-31T06:59:02.220Z,91936.72
2023-03-31T07:01:36.769Z,91938.97
2023-03-31T07:04:09.150Z,91932.31
2023-03-31T07:06:41.678Z,91925.56
2023-03-31T07:09:14.905Z,91922.16
2023-03-31T07:11:47.475Z,91920.91
2023-03-31T07:14:19.796Z,91915.84
2023-03-31T07:16:52.502Z,91918.50
2023-03-31T07:19:25.178Z,91901.53
2023-03-31T07:21:57.494Z,91902.88
2023-03-31T07:24:30.582Z,91888.66
2023-03-31T07:27:02.927Z,91896.53
2023-03-31T07:29:35.395Z,91893.38
2023-03-31T07:32:07.748Z,91893.88
2023-03-31T07:34:40.968Z,91897.69
2023-03-31T07:37:13.326Z,91883.13
2023-03-31T07:39:46.397Z,91882.22
2023-03-31T07:42:18.769Z,91886.91
2023-03-31T07:44:51.070Z,91877.63
2023-03-31T07:47:23.488Z,91876.50
2023-03-31T07:49:55.778Z,91866.31
2023-03-31T07:52:28.117Z,91880.66
2023-03-31T07:55:01.460Z,91878.84
2023-03-31T07:57:33.986Z,91895.78
2023-03-31T08:00:11.545Z,91893.63
2023-03-31T08:02:46.570Z,91879.50
2023-03-31T08:05:20.538Z,91879.69
2023-03-31T08:07:52.960Z,91872.94
2023-03-31T08:10:27.535Z,91877.69
2023-03-31T08:12:59.877Z,91874.75
2023-03-31T08:15:32.206Z,91875.06
2023-03-31T08:18:05.225Z,91863.53
2023-03-31T08:20:38.698Z,91876.41
2023-03-31T08:23:11.489Z,91867.97
2023-03-31T08:25:44.857Z,91864.41
2023-03-31T08:28:17.699Z,91850.13
2023-03-31T08:30:50.234Z,91850.00
2023-03-31T08:33:22.633Z,91859.66
2023-03-31T08:35:55.132Z,91849.56
2023-03-31T08:38:27.520Z,91837.56
2023-03-31T08:41:01.575Z,91846.31
2023-03-31T08:43:41.116Z,91852.34
2023-03-31T08:46:17.548Z,91836.97
2023-03-31T08:48:54.335Z,91838.06
2023-03-31T08:51:29.670Z,91835.09
2023-03-31T08:54:04.998Z,91811.28
2023-03-31T08:56:41.175Z,91830.19
2023-03-31T08:59:25.797Z,91828.19
2023-03-31T09:02:10.396Z,91833.56
2023-03-31T09:05:17.754Z,91820.28
2023-03-31T09:07:59.565Z,91824.69
2023-03-31T09:10:41.408Z,91833.22
2023-03-31T09:13:49.304Z,91834.00
2023-03-31T09:16:27.162Z,91833.47
2023-03-31T09:19:01.407Z,91824.66
2023-03-31T09:21:39.824Z,91822.47
2023-03-31T09:24:16.920Z,91824.03
2023-03-31T09:26:52.726Z,91817.66
2023-03-31T09:29:41.449Z,91814.69
2023-03-31T09:32:17.458Z,91816.28
2023-03-31T09:34:52.748Z,91816.28
2023-03-31T09:37:29.839Z,91824.38
2023-03-31T09:40:07.250Z,91816.28
2023-03-31T09:42:39.890Z,91824.19
2023-03-31T09:45:16.110Z,91811.31
2023-03-31T09:47:54.222Z,91814.84
2023-03-31T09:50:27.603Z,91802.06
2023-03-31T09:53:01.531Z,91797.16
2023-03-31T09:55:43.010Z,91800.28
2023-03-31T09:58:16.741Z,91797.09
2023-03-31T10:01:01.048Z,91794.66
2023-03-31T10:03:47.722Z,91796.34
2023-03-31T10:06:21.296Z,91788.28
2023-03-31T10:08:55.937Z,91790.00
2023-03-31T10:11:29.020Z,91782.88
2023-03-31T10:14:03.418Z,91787.81
2023-03-31T10:16:47.761Z,91777.50
2023-03-31T10:19:23.670Z,91772.09
2023-03-31T10:21:58.601Z,91771.53
2023-03-31T10:24:38.314Z,91773.59
2023-03-31T10:27:19.886Z,91772.13
2023-03-31T10:29:54.185Z,91767.66
2023-03-31T10:32:28.990Z,91766.84
2023-03-31T10:35:06.796Z,91763.44
2023-03-31T10:37:39.998Z,91757.03
2023-03-31T10:40:19.276Z,91761.19
2023-03-31T10:43:01.519Z,91740.81
2023-03-31T10:45:38.641Z,91753.44
2023-03-31T10:48:18.905Z,91749.53
2023-03-31T10:50:52.364Z,91733.81
2023-03-31T10:53:24.836Z,91736.00
2023-03-31T10:56:07.209Z,91738.66
2023-03-31T10:59:09.492Z,91732.84
2023-03-31T11:01:59.737Z,91741.38
2023-03-31T11:04:55.813Z,91733.81
2023-03-31T11:07:53.022Z,91731.06
2023-03-31T11:10:47.995Z,91728.44
2023-03-31T11:13:26.281Z,91729.19
2023-03-31T11:16:07.426Z,91727.22
2023-03-31T11:18:55.625Z,91712.00
2023-03-31T11:21:38.677Z,91705.75
2023-03-31T11:24:21.556Z,91704.66
2023-03-31T11:27:03.247Z,91693.34
2023-03-31T11:29:40.370Z,91688.44
2023-03-31T11:32:46.751Z,91685.72
2023-03-31T11:35:38.950Z,91688.00
2023-03-31T11:38:35.125Z,91678.13
2023-03-31T11:41:13.544Z,91678.00
2023-03-31T11:43:50.233Z,91668.94
2023-03-31T11:46:26.720Z,91672.63
2023-03-31T11:49:03.089Z,91670.72
2023-03-31T11:51:43.666Z,91657.28
2023-03-31T11:54:20.084Z,91658.94
2023-03-31T11:56:55.437Z,91659.44
2023-03-31T11:59:31.238Z,91648.25
2023-03-31T12:02:15.282Z,91642.25
2023-03-31T12:04:51.265Z,91642.16
2023-03-31T12:07:30.774Z,91635.53
2023-03-31T12:10:11.914Z,91628.59
2023-03-31T12:12:49.305Z,91625.97
2023-03-31T12:15:24.765Z,91626.72
2023-03-31T12:18:03.177Z,91627.53
2023-03-31T12:20:40.994Z,91622.59
2023-03-31T12:23:17.048Z,91619.84
2023-03-31T12:25:54.268Z,91617.59
2023-03-31T12:28:30.800Z,91616.47
2023-03-31T12:31:06.013Z,91614.28
2023-03-31T12:33:43.022Z,91615.16
2023-03-31T12:36:25.937Z,91610.03
2023-03-31T12:39:11.754Z,91611.16
2023-03-31T12:41:58.074Z,91594.59
2023-03-31T12:44:40.330Z,91590.97
2023-03-31T12:47:36.892Z,91591.84
2023-03-31T12:50:29.400Z,91587.06
2023-03-31T12:53:12.518Z,91577.41
2023-03-31T12:55:46.986Z,91579.31
2023-03-31T12:58:51.612Z,91568.13
2023-03-31T13:01:24.985Z,91554.72
2023-03-31T13:04:10.003Z,91555.31
2023-03-31T13:07:00.940Z,91539.41
2023-03-31T13:09:46.284Z,91534.38
2023-03-31T13:12:21.360Z,91531.50
2023-03-31T13:14:59.297Z,91520.75
2023-03-31T13:17:35.449Z,91508.00
2023-03-31T13:20:35.937Z,91509.56
2023-03-31T13:23:18.951Z,91496.84
2023-03-31T13:25:52.367Z,91490.75
2023-03-31T13:28:33.722Z,91488.56
2023-03-31T13:31:07.333Z,91484.50
2023-03-31T13:33:46.606Z,91481.69
2023-03-31T13:36:58.786Z,91472.97
2023-03-31T13:39:55.001Z,91465.63
2023-03-31T13:42:57.434Z,91467.56
2023-03-31T13:45:50.595Z,91460.91
2023-03-31T13:48:40.089Z,91460.78
2023-03-31T13:51:27.005Z,91451.78
2023-03-31T13:54:24.828Z,91455.09
2023-03-31T13:57:24.100Z,91446.81
2023-03-31T14:00:20.641Z,91437.84
2023-03-31T14:03:31.557Z,91444.72
2023-03-31T14:06:08.283Z,91440.06
2023-03-31T14:08:48.976Z,91438.97
2023-03-31T14:11:24.889Z,91443.44
2023-03-31T14:14:01.787Z,91438.47
2023-03-31T14:16:37.808Z,91433.63
2023-03-31T14:19:47.413Z,91431.47
2023-03-31T14:22:32.245Z,91424.22
2023-03-31T14:25:15.015Z,91429.25
2023-03-31T14:28:00.244Z,91416.66
2023-03-31T14:30:41.721Z,91410.22
2023-03-31T14:33:28.432Z,91409.50
2023-03-31T14:36:10.915Z,91415.38
2023-03-31T14:38:44.777Z,91417.66
2023-03-31T14:41:28.799Z,91402.75
2023-03-31T14:44:04.295Z,91397.97
2023-03-31T14:46:38.219Z,91397.88
2023-03-31T14:49:20.749Z,91390.91
2023-03-31T14:51:54.327Z,91385.00
2023-03-31T14:54:26.668Z,91387.56
2023-03-31T14:56:59.479Z,91380.78
2023-03-31T14:59:36.730Z,91379.91
2023-03-31T15:02:15.732Z,91386.41
2023-03-31T15:04:50.928Z,91385.03
2023-03-31T15:07:23.800Z,91373.84
2023-03-31T15:09:56.365Z,91374.78
2023-03-31T15:12:30.518Z,91378.66
2023-03-31T15:15:06.251Z,91382.06
2023-03-31T15:17:41.173Z,91382.81
2023-03-31T15:20:27.372Z,91376.81
2023-03-31T15:22:59.873Z,91378.75
2023-03-31T15:25:36.819Z,91375.72
2023-03-31T15:28:13.854Z,91374.16
2023-03-31T15:30:54.363Z,91368.81
2023-03-31T15:33:40.808Z,91365.63
2023-03-31T15:36:14.327Z,91373.13
2023-03-31T15:38:47.644Z,91369.38
2023-03-31T15:41:21.472Z,91366.72
2023-03-31T15:44:04.879Z,91378.00
2023-03-31T15:46:56.183Z,91375.31
2023-03-31T15:49:29.433Z,91365.78
2023-03-31T15:52:02.615Z,91372.50
2023-03-31T15:54:38.266Z,91372.81
2023-03-31T15:57:17.915Z,91368.19
2023-03-31T15:59:56.322Z,91367.00
2023-03-31T16:02:48.149Z,91371.59
2023-03-31T16:05:43.747Z,91361.00
2023-03-31T16:08:31.331Z,91358.91
2023-03-31T16:11:08.458Z,91356.31
2023-03-31T16:13:44.261Z,91357.72
2023-03-31T16:16:18.894Z,91357.38
2023-03-31T16:18:59.630Z,91353.53
2023-03-31T16:21:37.099Z,91354.59
2023-03-31T16:24:10.136Z,91354.06
2023-03-31T16:26:42.711Z,91350.53
2023-03-31T16:29:20.397Z,91351.19
2023-03-31T16:32:08.625Z,91359.75
2023-03-31T16:34:55.666Z,91362.09
2023-03-31T16:37:28.045Z,91361.69
2023-03-31T16:40:00.428Z,91365.78
2023-03-31T16:42:33.084Z,91364.59
2023-03-31T16:47:45.319Z,91360.47
2023-03-31T16:50:19.024Z,91353.13
2023-03-31T16:52:51.386Z,91353.34
2023-03-31T16:55:23.740Z,91349.34
2023-03-31T16:57:56.085Z,91348.06
2023-03-31T17:00:29.338Z,91359.47
2023-03-31T17:03:02.403Z,91348.66
2023-03-31T17:05:38.779Z,91365.06
2023-03-31T17:08:12.606Z,91367.16
2023-03-31T17:10:52.020Z,91371.03
2023-03-31T17:13:24.334Z,91369.94
2023-03-31T17:16:04.642Z,91374.19
2023-03-31T17:18:45.697Z,91365.63
2023-03-31T17:21:19.086Z,91366.47
2023-03-31T17:23:51.653Z,91367.28
2023-03-31T17:26:23.957Z,91369.53
2023-03-31T17:28:56.255Z,91361.41
2023-03-31T17:31:29.889Z,91360.88
2023-03-31T17:34:02.202Z,91358.97
2023-03-31T17:36:35.295Z,91353.78
2023-03-31T17:39:07.777Z,91353.47
2023-03-31T17:41:40.119Z,91355.38
2023-03-31T17:44:12.441Z,91363.06
2023-03-31T17:46:45.033Z,91363.47
2023-03-31T17:49:17.699Z,91360.22
2023-03-31T17:51:52.286Z,91364.28
2023-03-31T17:54:25.444Z,91356.63
2023-03-31T17:56:58.340Z,91358.28
2023-03-31T17:59:31.053Z,91362.00
2023-03-31T18:02:03.572Z,91364.19
2023-03-31T18:04:36.168Z,91361.56
2023-03-31T18:07:09.872Z,91362.88
2023-03-31T18:09:42.185Z,91355.66
2023-03-31T18:12:15.675Z,91341.03
2023-03-31T18:14:48.032Z,91364.81
2023-03-31T18:17:20.640Z,91363.59
2023-03-31T18:19:52.984Z,91351.94
2023-03-31T18:22:26.594Z,91344.84
2023-03-31T18:24:58.970Z,91353.66
2023-03-31T18:27:31.272Z,91352.59
2023-03-31T18:30:04.231Z,91351.28
2023-03-31T18:32:37.849Z,91348.66
2023-03-31T18:35:10.560Z,91349.53
2023-03-31T18:37:43.540Z,91341.66
2023-03-31T18:40:16.648Z,91339.72
2023-03-31T18:42:49.209Z,91335.59
2023-03-31T18:45:21.615Z,91329.34
2023-03-31T18:47:54.154Z,91336.00
2023-03-31T18:50:26.459Z,91335.22
2023-03-31T18:52:59.555Z,91333.91
2023-03-31T18:55:31.845Z,91323.97
2023-03-31T18:58:04.737Z,91339.00
2023-03-31T19:00:37.080Z,91334.22
2023-03-31T19:03:09.667Z,91336.19
2023-03-31T19:05:42.150Z,91338.50
2023-03-31T19:08:15.447Z,91332.16
2023-03-31T19:10:48.270Z,91340.41
2023-03-31T19:13:20.769Z,91345.88
2023-03-31T19:15:53.144Z,91343.25
2023-03-31T19:18:27.085Z,91339.00
2023-03-31T19:21:01.417Z,91346.22
2023-03-31T19:23:34.437Z,91341.19
2023-03-31T19:26:07.042Z,91328.97
2023-03-31T19:28:39.926Z,91330.88
2023-03-31T19:31:12.288Z,91334.91
2023-03-31T19:33:44.571Z,91328.78
2023-03-31T19:36:17.183Z,91321.25
2023-03-31T19:38:50.889Z,91329.22
2023-03-31T19:41:23.283Z,91324.75
2023-03-31T19:43:55.561Z,91325.19
2023-03-31T19:46:28.648Z,91333.28
2023-03-31T19:49:01.524Z,91324.75
2023-03-31T19:51:33.911Z,91326.84
2023-03-31T19:54:07.094Z,91323.47
2023-03-31T19:56:39.532Z,91327.72
2023-03-31T19:59:11.865Z,91316.94
2023-03-31T20:01:44.234Z,91316.56
2023-03-31T20:04:17.330Z,91319.31
2023-03-31T20:06:49.717Z,91309.72
2023-03-31T20:09:24.533Z,91312.44
2023-03-31T20:11:56.912Z,91321.47
2023-03-31T20:14:29.624Z,91326.38
2023-03-31T20:17:03.447Z,91322.34
2023-03-31T20:19:35.854Z,91323.75
2023-03-31T20:22:08.467Z,91317.66
2023-03-31T20:24:41.445Z,91336.03
2023-03-31T20:27:13.740Z,91327.41
2023-03-31T20:29:46.234Z,91323.91
2023-03-31T20:32:18.547Z,91321.75
2023-03-31T20:34:50.995Z,91313.22
2023-03-31T20:37:23.477Z,91311.94
2023-03-31T20:39:57.246Z,91311.81
2023-03-31T20:42:29.818Z,91321.69
2023-03-31T20:45:02.457Z,91312.50
2023-03-31T20:47:34.846Z,91315.72
2023-03-31T20:50:07.881Z,91304.81
2023-03-31T20:52:40.426Z,91314.25
2023-03-31T20:55:13.408Z,91311.69
2023-03-31T20:57:45.798Z,91313.84
2023-03-31T21:00:18.440Z,91307.47
2023-03-31T21:02:50.796Z,91308.19
2023-03-31T21:05:23.125Z,91307.56
2023-03-31T21:07:56.161Z,91295.56
2023-03-31T21:10:29.083Z,91289.34
2023-03-31T21:13:01.967Z,91287.53
2023-03-31T21:15:34.294Z,91294.00
2023-03-31T21:18:07.372Z,91288.56
2023-03-31T21:20:39.860Z,91287.31
2023-03-31T21:23:12.139Z,91285.28
2023-03-31T21:25:48.130Z,91289.53
2023-03-31T21:28:23.203Z,91298.81
2023-03-31T21:30:57.282Z,91297.84
2023-03-31T21:33:30.932Z,91285.63
2023-03-31T21:36:03.581Z,91281.28
2023-03-31T21:38:36.745Z,91277.78
2023-03-31T21:41:11.578Z,91284.44
2023-03-31T21:43:44.780Z,91273.56
2023-03-31T21:46:18.506Z,91278.34
2023-03-31T21:48:50.950Z,91271.81
2023-03-31T21:51:23.922Z,91272.13
2023-03-31T21:53:56.624Z,91273.66
2023-03-31T21:56:31.984Z,91284.44
2023-03-31T21:59:04.979Z,91279.56
2023-03-31T22:01:37.356Z,91284.69
2023-03-31T22:04:09.752Z,91278.78
2023-03-31T22:06:42.077Z,91280.31
2023-03-31T22:09:14.604Z,91276.06
2023-03-31T22:11:47.573Z,91276.84
2023-03-31T22:14:19.898Z,91274.22
2023-03-31T22:16:52.221Z,91279.09
2023-03-31T22:19:24.782Z,91272.13
2023-03-31T22:21:57.740Z,91268.72
2023-03-31T22:24:30.056Z,91277.56
2023-03-31T22:27:03.472Z,91269.50
2023-03-31T22:29:36.038Z,91261.56
2023-03-31T22:32:08.398Z,91260.13
2023-03-31T22:34:41.189Z,91257.22
2023-03-31T22:37:13.654Z,91243.34
2023-03-31T22:39:46.534Z,91263.41
2023-03-31T22:42:19.502Z,91262.97
2023-03-31T22:44:51.797Z,91256.22
2023-03-31T22:47:24.174Z,91257.84
2023-03-31T22:49:56.480Z,91257.75
2023-03-31T22:52:28.773Z,91251.22
2023-03-31T22:55:01.621Z,91258.63
2023-03-31T22:57:35.157Z,91255.91
2023-03-31T23:00:08.620Z,91253.63
2023-03-31T23:02:41.504Z,91259.84
2023-03-31T23:05:13.911Z,91245.75
2023-03-31T23:07:46.223Z,91253.28
2023-03-31T23:10:18.839Z,91253.63
2023-03-31T23:12:52.243Z,91253.94
2023-03-31T23:15:24.824Z,91246.88
2023-03-31T23:17:57.270Z,91239.00
2023-03-31T23:20:29.719Z,91238.44
2023-03-31T23:23:02.095Z,91231.16
2023-03-31T23:25:34.361Z,91225.06
2023-03-31T23:28:07.765Z,91229.19
2023-03-31T23:30:40.574Z,91225.59
2023-03-31T23:33:12.898Z,91234.75
2023-03-31T23:35:45.237Z,91227.56
2023-03-31T23:38:17.963Z,91218.94
2023-03-31T23:40:50.353Z,91211.97
2023-03-31T23:43:24.535Z,91219.16
2023-03-31T23:45:56.860Z,91205.44
2023-03-31T23:48:29.265Z,91202.41
2023-03-31T23:51:02.698Z,91201.72
2023-03-31T23:53:35.438Z,91194.06
2023-03-31T23:56:09.826Z,91194.31
2023-03-31T23:58:44.322Z,91197.38
